createdAt,value
2018-05-23T00:02:11.356Z,18.73
2018-05-23T00:04:39.606Z,13.47
2018-05-23T00:07:07.092Z,14.37
2018-05-23T00:09:35.315Z,12.90
2018-05-23T00:12:02.778Z,11.67
2018-05-23T00:14:30.285Z,16.20
2018-05-23T00:16:58.529Z,11.77
2018-05-23T00:19:26.035Z,13.00
2018-05-23T00:21:53.512Z,16.10
2018-05-23T00:24:21.066Z,14.73
2018-05-23T00:26:48.549Z,17.27
2018-05-23T00:29:16.013Z,12.10
2018-05-23T00:31:43.503Z,14.27
2018-05-23T00:34:10.960Z,13.77
2018-05-23T00:36:38.461Z,13.67
2018-05-23T00:39:05.935Z,11.57
2018-05-23T00:41:33.391Z,12.57
2018-05-23T00:44:00.888Z,17.53
2018-05-23T00:46:28.426Z,11.73
2018-05-23T00:48:55.948Z,12.57
2018-05-23T00:51:23.431Z,12.60
2018-05-23T00:53:50.900Z,15.60
2018-05-23T00:56:18.379Z,14.63
2018-05-23T00:58:45.847Z,17.70
2018-05-23T01:01:13.304Z,13.17
2018-05-23T01:03:40.784Z,13.90
2018-05-23T01:06:08.248Z,13.47
2018-05-23T01:08:35.740Z,21.60
2018-05-23T01:11:03.281Z,14.57
2018-05-23T01:13:30.738Z,12.03
2018-05-23T01:15:58.222Z,12.60
2018-05-23T01:18:25.716Z,13.80
2018-05-23T01:20:53.197Z,27.00
2018-05-23T01:23:20.681Z,14.13
2018-05-23T01:25:48.143Z,17.40
2018-05-23T01:28:15.752Z,13.60
2018-05-23T01:30:43.227Z,14.70
2018-05-23T01:33:10.680Z,14.10
2018-05-23T01:35:38.189Z,11.67
2018-05-23T01:38:05.664Z,13.20
2018-05-23T01:40:34.220Z,13.97
2018-05-23T01:43:01.687Z,12.27
2018-05-23T01:45:29.177Z,11.63
2018-05-23T01:47:56.646Z,11.53
2018-05-23T01:50:24.117Z,13.50
2018-05-23T01:52:51.612Z,13.60
2018-05-23T01:55:19.100Z,16.33
2018-05-23T01:57:47.348Z,19.70
2018-05-23T02:00:14.813Z,19.10
2018-05-23T02:02:42.299Z,14.40
2018-05-23T02:05:09.752Z,14.07
2018-05-23T02:07:37.225Z,12.37
2018-05-23T02:10:04.726Z,14.57
2018-05-23T02:12:32.185Z,15.60
2018-05-23T02:14:59.670Z,14.33
2018-05-23T02:17:27.145Z,15.33
2018-05-23T02:19:54.634Z,18.23
2018-05-23T02:22:22.129Z,20.20
2018-05-23T02:24:49.660Z,13.13
2018-05-23T02:27:17.901Z,20.83
2018-05-23T02:29:45.388Z,13.03
2018-05-23T02:32:13.619Z,14.00
2018-05-23T02:34:41.077Z,14.30
2018-05-23T02:37:08.561Z,13.00
2018-05-23T02:39:36.036Z,23.07
2018-05-23T02:42:04.296Z,15.80
2018-05-23T02:44:31.754Z,16.40
2018-05-23T02:46:59.300Z,19.80
2018-05-23T02:49:27.517Z,16.73
2018-05-23T02:51:55.744Z,15.37
2018-05-23T02:54:23.212Z,15.33
2018-05-23T02:56:50.708Z,16.50
2018-05-23T02:59:18.939Z,16.00
2018-05-23T03:01:46.394Z,16.00
2018-05-23T03:04:13.904Z,16.37
2018-05-23T03:06:42.136Z,15.37
2018-05-23T03:09:10.669Z,18.50
2018-05-23T03:11:38.928Z,18.57
2018-05-23T03:14:06.392Z,16.27
2018-05-23T03:16:34.637Z,18.57
2018-05-23T03:19:02.129Z,18.00
2018-05-23T03:21:30.382Z,15.70
2018-05-23T03:23:57.856Z,15.67
2018-05-23T03:26:26.116Z,15.23
2018-05-23T03:28:53.607Z,14.20
2018-05-23T03:31:22.049Z,18.00
2018-05-23T03:33:51.367Z,18.60
2018-05-23T03:36:19.043Z,23.97
2018-05-23T03:38:47.469Z,23.33
2018-05-23T03:41:14.995Z,18.80
2018-05-23T03:43:43.244Z,15.30
2018-05-23T03:46:10.758Z,15.80
2018-05-23T03:48:38.223Z,16.07
2018-05-23T03:51:05.700Z,17.83
2018-05-23T03:53:33.183Z,19.03
2018-05-23T03:56:00.671Z,14.93
2018-05-23T03:58:28.189Z,17.00
2018-05-23T04:01:07.678Z,18.67
2018-05-23T04:03:47.106Z,17.90
2018-05-23T04:06:26.473Z,22.80
2018-05-23T04:08:54.029Z,16.90
2018-05-23T04:11:21.488Z,18.40
2018-05-23T04:13:48.951Z,18.00
2018-05-23T04:16:16.429Z,17.87
2018-05-23T04:18:43.892Z,23.23
2018-05-23T04:21:11.382Z,35.60
2018-05-23T04:23:38.857Z,17.20
2018-05-23T04:26:06.322Z,20.77
2018-05-23T04:28:33.843Z,21.80
2018-05-23T04:31:01.352Z,16.00
2018-05-23T04:33:28.822Z,16.80
2018-05-23T04:35:56.316Z,17.03
2018-05-23T04:38:23.797Z,18.10
2018-05-23T04:40:51.279Z,20.80
2018-05-23T04:43:19.444Z,24.43
2018-05-23T04:45:47.022Z,16.20
2018-05-23T04:48:14.501Z,16.93
2018-05-23T04:50:42.012Z,18.80
2018-05-23T04:53:09.502Z,19.47
2018-05-23T04:55:36.987Z,19.47
2018-05-23T04:58:04.459Z,16.67
2018-05-23T05:00:32.028Z,15.57
2018-05-23T05:02:59.517Z,15.90
2018-05-23T05:05:27.008Z,18.80
2018-05-23T05:07:54.495Z,19.00
2018-05-23T05:10:22.000Z,17.73
2018-05-23T05:12:49.481Z,16.77
2018-05-23T05:15:16.957Z,16.33
2018-05-23T05:17:44.445Z,14.97
2018-05-23T05:20:11.896Z,18.93
2018-05-23T05:22:39.403Z,15.50
2018-05-23T05:25:06.866Z,18.57
2018-05-23T05:27:34.364Z,19.00
2018-05-23T05:30:01.866Z,17.90
2018-05-23T05:32:29.370Z,17.40
2018-05-23T05:34:56.828Z,22.93
2018-05-23T05:37:24.304Z,17.10
2018-05-23T05:39:51.810Z,19.03
2018-05-23T05:42:19.300Z,20.90
2018-05-23T05:44:46.873Z,15.63
2018-05-23T05:47:14.339Z,27.43
2018-05-23T05:49:41.824Z,17.07
2018-05-23T05:52:09.268Z,22.67
2018-05-23T05:54:36.756Z,15.57
2018-05-23T05:57:04.207Z,18.50
2018-05-23T05:59:31.782Z,16.33
2018-05-23T06:01:59.320Z,15.23
2018-05-23T06:04:26.763Z,21.70
2018-05-23T06:06:54.229Z,22.30
2018-05-23T06:09:21.774Z,17.70
2018-05-23T06:11:49.304Z,18.97
2018-05-23T06:14:16.784Z,20.73
2018-05-23T06:16:44.278Z,20.60
2018-05-23T06:19:11.776Z,20.60
2018-05-23T06:21:39.266Z,21.93
2018-05-23T06:24:06.727Z,16.47
2018-05-23T06:26:34.186Z,26.00
2018-05-23T06:29:01.685Z,18.73
2018-05-23T06:31:29.197Z,16.43
2018-05-23T06:33:56.660Z,11.97
2018-05-23T06:36:24.124Z,18.70
2018-05-23T06:38:51.758Z,17.77
2018-05-23T06:41:19.232Z,13.60
2018-05-23T06:43:46.696Z,20.13
2018-05-23T06:46:14.185Z,21.70
2018-05-23T06:48:41.660Z,16.30
2018-05-23T06:51:09.137Z,16.10
2018-05-23T06:53:36.627Z,15.73
2018-05-23T06:56:04.107Z,22.57
2018-05-23T06:58:32.366Z,16.80
2018-05-23T07:00:59.857Z,37.77
2018-05-23T07:03:27.356Z,17.10
2018-05-23T07:05:54.975Z,30.37
2018-05-23T07:08:22.324Z,16.87
2018-05-23T07:10:49.816Z,15.23
2018-05-23T07:13:17.294Z,13.67
2018-05-23T07:15:44.793Z,16.23
2018-05-23T07:18:13.124Z,19.67
2018-05-23T07:20:41.352Z,13.57
2018-05-23T07:23:08.929Z,14.43
2018-05-23T07:25:36.435Z,21.77
2018-05-23T07:28:03.941Z,19.50
2018-05-23T07:30:31.404Z,16.70
2018-05-23T07:32:58.874Z,15.77
2018-05-23T07:35:26.327Z,12.93
2018-05-23T07:37:53.859Z,15.10
2018-05-23T07:40:21.355Z,16.10
2018-05-23T07:42:48.845Z,16.23
2018-05-23T07:45:16.353Z,20.30
2018-05-23T07:47:43.820Z,16.67
2018-05-23T07:50:11.291Z,14.27
2018-05-23T07:52:38.772Z,12.47
2018-05-23T07:55:06.243Z,14.27
2018-05-23T07:57:33.704Z,21.40
2018-05-23T08:00:01.191Z,18.03
2018-05-23T08:02:28.664Z,15.43
2018-05-23T08:04:56.124Z,15.83
2018-05-23T08:07:23.575Z,13.10
2018-05-23T08:09:51.095Z,16.70
2018-05-23T08:12:18.589Z,15.13
2018-05-23T08:14:46.822Z,20.27
2018-05-23T08:17:14.297Z,14.67
2018-05-23T08:19:41.797Z,16.80
2018-05-23T08:22:09.252Z,14.60
2018-05-23T08:24:36.731Z,15.50
2018-05-23T08:27:04.186Z,15.90
2018-05-23T08:29:31.676Z,32.77
2018-05-23T08:31:59.138Z,17.03
2018-05-23T08:34:26.615Z,24.37
2018-05-23T08:36:54.100Z,20.00
2018-05-23T08:39:21.580Z,14.53
2018-05-23T08:41:49.061Z,19.87
2018-05-23T08:44:16.527Z,18.50
2018-05-23T08:46:44.004Z,14.50
2018-05-23T08:49:11.512Z,18.33
2018-05-23T08:51:38.975Z,15.50
2018-05-23T08:54:06.436Z,15.57
2018-05-23T08:56:33.920Z,17.97
2018-05-23T08:59:01.416Z,20.70
2018-05-23T09:01:29.730Z,20.00
2018-05-23T09:03:57.211Z,21.77
2018-05-23T09:06:24.676Z,19.30
2018-05-23T09:08:52.180Z,22.27
2018-05-23T09:11:20.415Z,24.13
2018-05-23T09:13:47.932Z,17.43
2018-05-23T09:16:15.426Z,20.13
2018-05-23T09:18:42.894Z,40.30
2018-05-23T09:21:10.397Z,28.70
2018-05-23T09:23:37.877Z,14.80
2018-05-23T09:26:05.379Z,22.57
2018-05-23T09:28:32.841Z,14.67
2018-05-23T09:31:00.309Z,13.70
2018-05-23T09:33:28.572Z,17.10
2018-05-23T09:35:56.036Z,14.40
2018-05-23T09:38:23.515Z,17.40
2018-05-23T09:40:51.779Z,18.40
2018-05-23T09:43:20.044Z,16.20
2018-05-23T09:45:47.500Z,23.33
2018-05-23T09:48:14.989Z,24.87
2018-05-23T09:50:43.216Z,16.73
2018-05-23T09:53:10.706Z,18.53
2018-05-23T09:55:38.931Z,19.63
2018-05-23T09:58:06.503Z,22.83
2018-05-23T10:00:34.025Z,17.93
2018-05-23T10:03:01.481Z,19.10
2018-05-23T10:05:28.953Z,22.50
2018-05-23T10:07:56.620Z,14.50
2018-05-23T10:10:24.154Z,31.03
2018-05-23T10:12:52.405Z,21.43
2018-05-23T10:15:19.887Z,25.63
2018-05-23T10:17:48.154Z,17.30
2018-05-23T10:20:16.400Z,19.20
2018-05-23T10:22:43.883Z,16.43
2018-05-23T10:25:11.346Z,14.60
2018-05-23T10:27:39.711Z,17.75
2018-05-23T10:30:07.197Z,22.97
2018-05-23T10:32:35.457Z,17.20
2018-05-23T10:35:03.700Z,19.30
2018-05-23T10:37:31.200Z,14.03
2018-05-23T10:39:59.504Z,15.57
2018-05-23T10:42:26.963Z,21.97
2018-05-23T10:44:54.448Z,20.93
2018-05-23T10:47:21.917Z,14.00
2018-05-23T10:49:49.423Z,15.83
2018-05-23T10:52:16.922Z,17.47
2018-05-23T10:54:44.397Z,14.90
2018-05-23T10:57:11.955Z,14.00
2018-05-23T10:59:39.342Z,13.77
2018-05-23T11:02:06.811Z,15.93
2018-05-23T11:04:35.049Z,19.90
2018-05-23T11:07:02.508Z,15.50
2018-05-23T11:09:30.034Z,16.03
2018-05-23T11:11:57.595Z,18.63
2018-05-23T11:14:25.071Z,14.80
2018-05-23T11:16:52.555Z,14.43
2018-05-23T11:19:20.037Z,12.20
2018-05-23T11:21:48.262Z,14.70
2018-05-23T11:24:15.853Z,14.00
2018-05-23T11:26:43.313Z,15.33
2018-05-23T11:29:10.800Z,13.80
2018-05-23T11:31:39.039Z,23.63
2018-05-23T11:34:06.510Z,14.37
2018-05-23T11:36:33.980Z,13.63
2018-05-23T11:39:01.448Z,16.20
2018-05-23T11:41:28.913Z,17.30
2018-05-23T11:43:56.409Z,18.03
2018-05-23T11:46:23.921Z,13.77
2018-05-23T11:48:52.148Z,13.63
2018-05-23T11:51:19.615Z,12.40
2018-05-23T11:53:47.087Z,11.50
2018-05-23T11:56:15.316Z,13.03
2018-05-23T11:58:42.826Z,15.27
2018-05-23T12:01:10.319Z,16.37
2018-05-23T12:03:38.544Z,13.77
2018-05-23T12:06:06.034Z,23.20
2018-05-23T12:08:34.287Z,13.93
2018-05-23T12:11:01.757Z,25.50
2018-05-23T12:13:29.392Z,14.00
2018-05-23T12:15:56.857Z,20.40
2018-05-23T12:18:24.353Z,17.80
2018-05-23T12:20:52.612Z,12.67
2018-05-23T12:23:20.080Z,13.40
2018-05-23T12:25:47.568Z,11.90
2018-05-23T12:28:15.028Z,11.50
2018-05-23T12:30:42.516Z,18.77
2018-05-23T12:33:09.992Z,12.33
2018-05-23T12:35:37.449Z,13.33
2018-05-23T12:38:04.985Z,22.93
2018-05-23T12:40:32.460Z,11.23
2018-05-23T12:42:59.927Z,14.20
2018-05-23T12:45:27.427Z,11.50
2018-05-23T12:47:55.664Z,13.87
2018-05-23T12:50:23.132Z,17.90
2018-05-23T12:52:50.608Z,10.53
2018-05-23T12:55:18.845Z,9.80
2018-05-23T12:57:46.388Z,12.77
2018-05-23T13:00:13.818Z,15.70
2018-05-23T13:02:41.321Z,14.90
2018-05-23T13:05:08.803Z,12.50
2018-05-23T13:07:36.259Z,11.73
2018-05-23T13:10:03.737Z,9.80
2018-05-23T13:12:32.096Z,11.03
2018-05-23T13:14:59.480Z,14.87
2018-05-23T13:17:27.740Z,11.60
2018-05-23T13:19:55.192Z,12.40
2018-05-23T13:22:22.656Z,15.37
2018-05-23T13:24:50.181Z,18.13
2018-05-23T13:27:17.665Z,11.23
2018-05-23T13:29:45.139Z,9.20
2018-05-23T13:32:13.397Z,7.90
2018-05-23T13:34:40.855Z,10.23
2018-05-23T13:37:08.341Z,8.80
2018-05-23T13:39:36.564Z,12.17
2018-05-23T13:42:04.034Z,8.30
2018-05-23T13:44:31.500Z,9.00
2018-05-23T13:46:58.987Z,12.90
2018-05-23T13:49:27.311Z,12.83
2018-05-23T13:51:54.805Z,7.70
2018-05-23T13:54:22.256Z,6.40
2018-05-23T13:56:49.727Z,13.50
2018-05-23T13:59:17.184Z,11.13
2018-05-23T14:01:44.694Z,6.93
2018-05-23T14:04:12.168Z,7.50
2018-05-23T14:06:39.644Z,7.50
2018-05-23T14:09:07.132Z,7.13
2018-05-23T14:11:35.377Z,5.80
2018-05-23T14:14:02.853Z,6.10
2018-05-23T14:16:30.332Z,13.00
2018-05-23T14:18:58.620Z,5.40
2018-05-23T14:21:26.832Z,7.30
2018-05-23T14:23:54.308Z,9.97
2018-05-23T14:26:21.765Z,4.27
2018-05-23T14:28:49.290Z,5.83
2018-05-23T14:31:16.745Z,6.80
2018-05-23T14:33:44.224Z,5.70
2018-05-23T14:36:11.768Z,6.10
2018-05-23T14:38:39.216Z,6.63
2018-05-23T14:41:06.673Z,5.87
2018-05-23T14:43:34.196Z,5.17
2018-05-23T14:46:01.627Z,8.70
2018-05-23T14:48:29.114Z,15.53
2018-05-23T14:50:56.593Z,7.67
2018-05-23T14:53:24.846Z,7.07
2018-05-23T14:55:52.461Z,6.83
2018-05-23T14:58:19.974Z,6.50
2018-05-23T15:00:48.233Z,10.13
2018-05-23T15:03:15.727Z,7.27
2018-05-23T15:05:43.971Z,12.23
2018-05-23T15:08:11.453Z,9.00
2018-05-23T15:10:39.698Z,8.80
2018-05-23T15:13:07.152Z,6.90
2018-05-23T15:15:34.625Z,6.20
2018-05-23T15:18:02.156Z,6.70
2018-05-23T15:20:29.633Z,7.93
2018-05-23T15:22:57.088Z,5.27
2018-05-23T15:25:24.565Z,6.83
2018-05-23T15:27:52.052Z,7.47
2018-05-23T15:30:19.516Z,15.17
2018-05-23T15:32:47.016Z,6.00
2018-05-23T15:35:14.595Z,6.87
2018-05-23T15:37:42.021Z,6.50
2018-05-23T15:40:09.482Z,5.97
2018-05-23T15:42:36.940Z,6.50
2018-05-23T15:45:04.420Z,10.67
2018-05-23T15:47:31.886Z,8.33
2018-05-23T15:49:59.374Z,8.67
2018-05-23T15:52:27.609Z,13.37
2018-05-23T15:54:55.090Z,9.13
2018-05-23T15:57:22.557Z,12.00
2018-05-23T15:59:50.890Z,18.33
2018-05-23T16:02:18.362Z,6.20
2018-05-23T16:04:45.854Z,6.63
2018-05-23T16:07:14.102Z,9.10
2018-05-23T16:09:41.574Z,6.50
2018-05-23T16:12:09.359Z,19.13
2018-05-23T16:14:37.249Z,5.90
2018-05-23T16:17:04.758Z,7.73
2018-05-23T16:19:32.247Z,12.63
2018-05-23T16:22:00.636Z,8.50
2018-05-23T16:24:28.146Z,9.93
2018-05-23T16:26:55.640Z,10.53
2018-05-23T16:29:23.956Z,9.43
2018-05-23T16:31:51.507Z,16.63
2018-05-23T16:34:19.031Z,11.43
2018-05-23T16:36:47.264Z,6.70
2018-05-23T16:39:14.759Z,18.77
2018-05-23T16:41:42.261Z,7.40
2018-05-23T16:44:09.707Z,9.67
2018-05-23T16:46:37.164Z,17.43
2018-05-23T16:49:04.677Z,8.57
2018-05-23T16:51:32.160Z,13.03
2018-05-23T16:54:00.397Z,6.97
2018-05-23T16:56:27.976Z,4.93
2018-05-23T16:58:55.685Z,7.07
2018-05-23T17:01:23.175Z,13.13
2018-05-23T17:03:50.994Z,7.07
2018-05-23T17:06:18.752Z,5.67
2018-05-23T17:08:46.428Z,7.53
2018-05-23T17:11:13.939Z,11.20
2018-05-23T17:13:41.453Z,7.80
2018-05-23T17:16:09.734Z,13.73
2018-05-23T17:18:37.209Z,7.80
2018-05-23T17:21:04.705Z,13.97
2018-05-23T17:23:32.209Z,5.40
2018-05-23T17:25:59.752Z,5.40
2018-05-23T17:28:27.983Z,8.30
2018-05-23T17:30:55.501Z,10.63
2018-05-23T17:33:23.042Z,6.23
2018-05-23T17:35:50.469Z,10.40
2018-05-23T17:38:17.951Z,8.40
2018-05-23T17:40:45.469Z,7.97
2018-05-23T17:43:12.955Z,7.00
2018-05-23T17:45:40.481Z,5.83
2018-05-23T17:48:07.901Z,9.70
2018-05-23T17:50:36.151Z,12.60
2018-05-23T17:53:03.637Z,5.97
2018-05-23T17:55:31.879Z,8.40
2018-05-23T17:57:59.366Z,10.37
2018-05-23T18:00:27.596Z,9.10
2018-05-23T18:02:55.080Z,13.23
2018-05-23T18:05:22.544Z,8.53
2018-05-23T18:07:49.993Z,5.73
2018-05-23T18:10:17.493Z,5.13
2018-05-23T18:12:45.734Z,9.27
2018-05-23T18:15:13.207Z,5.80
2018-05-23T18:17:41.450Z,6.47
2018-05-23T18:20:08.915Z,6.87
2018-05-23T18:22:36.376Z,7.60
2018-05-23T18:25:04.696Z,7.60
2018-05-23T18:27:32.928Z,9.97
2018-05-23T18:30:00.383Z,9.50
2018-05-23T18:32:27.897Z,10.60
2018-05-23T18:34:55.439Z,10.67
2018-05-23T18:37:22.933Z,11.90
2018-05-23T18:39:50.447Z,8.90
2018-05-23T18:42:17.913Z,5.47
2018-05-23T18:44:46.410Z,8.53
2018-05-23T18:47:13.910Z,12.10
2018-05-23T18:49:41.387Z,7.47
2018-05-23T18:52:09.117Z,7.00
2018-05-23T18:54:36.633Z,11.43
2018-05-23T18:57:04.443Z,10.20
2018-05-23T18:59:31.875Z,5.53
2018-05-23T19:01:59.526Z,7.47
2018-05-23T19:04:27.968Z,8.80
2018-05-23T19:06:56.444Z,9.80
2018-05-23T19:09:23.985Z,7.83
2018-05-23T19:11:51.517Z,13.33
2018-05-23T19:14:19.910Z,6.10
2018-05-23T19:16:48.514Z,7.03
2018-05-23T19:19:16.150Z,9.67
2018-05-23T19:21:43.640Z,6.53
2018-05-23T19:24:11.130Z,7.43
2018-05-23T19:26:38.627Z,7.13
2018-05-23T19:29:07.037Z,9.47
2018-05-23T19:31:34.532Z,7.53
2018-05-23T19:34:02.267Z,9.53
2018-05-23T19:36:29.728Z,6.40
2018-05-23T19:38:57.176Z,7.00
2018-05-23T19:41:24.918Z,9.50
2018-05-23T19:43:52.669Z,7.73
2018-05-23T19:46:20.320Z,7.50
2018-05-23T19:48:48.629Z,7.50
2018-05-23T19:51:16.836Z,8.40
2018-05-23T19:53:44.340Z,12.50
2018-05-23T19:56:11.900Z,8.77
2018-05-23T19:58:40.327Z,10.73
2018-05-23T20:01:07.995Z,18.93
2018-05-23T20:03:36.351Z,17.63
2018-05-23T20:06:05.067Z,9.70
2018-05-23T20:08:32.572Z,8.20
2018-05-23T20:11:00.033Z,12.53
2018-05-23T20:13:28.276Z,11.17
2018-05-23T20:15:55.727Z,8.43
2018-05-23T20:18:23.212Z,8.10
2018-05-23T20:20:50.702Z,16.17
2018-05-23T20:23:18.945Z,11.90
2018-05-23T20:25:46.437Z,11.17
2018-05-23T20:28:13.920Z,13.63
2018-05-23T20:30:41.395Z,13.47
2018-05-23T20:33:08.864Z,8.90
2018-05-23T20:35:36.320Z,8.70
2018-05-23T20:38:03.987Z,8.10
2018-05-23T20:40:31.497Z,8.30
2018-05-23T20:42:58.963Z,13.47
2018-05-23T20:45:26.430Z,9.60
2018-05-23T20:47:53.916Z,16.07
2018-05-23T20:50:21.406Z,9.10
2018-05-23T20:52:49.644Z,6.20
2018-05-23T20:55:17.128Z,13.90
2018-05-23T20:57:44.603Z,7.77
2018-05-23T21:00:12.912Z,6.77
2018-05-23T21:02:40.369Z,14.40
2018-05-23T21:05:07.890Z,8.07
2018-05-23T21:07:35.306Z,8.83
2018-05-23T21:10:02.792Z,7.47
2018-05-23T21:12:30.258Z,12.03
2018-05-23T21:14:57.723Z,8.80
2018-05-23T21:17:25.192Z,14.13
2018-05-23T21:19:52.669Z,9.43
2018-05-23T21:22:20.131Z,6.53
2018-05-23T21:24:47.675Z,6.50
2018-05-23T21:27:15.920Z,26.53
2018-05-23T21:29:43.427Z,9.23
2018-05-23T21:32:10.888Z,10.13
2018-05-23T21:34:38.376Z,10.80
2018-05-23T21:37:05.828Z,6.37
2018-05-23T21:39:33.281Z,12.90
2018-05-23T21:42:00.756Z,7.70
2018-05-23T21:44:28.233Z,7.43
2018-05-23T21:46:55.701Z,6.57
2018-05-23T21:49:23.150Z,7.00
2018-05-23T21:51:50.614Z,7.13
2018-05-23T21:54:18.840Z,8.30
2018-05-23T21:56:46.326Z,7.73
2018-05-23T21:59:13.805Z,8.03
2018-05-23T22:01:41.271Z,5.47
2018-05-23T22:04:08.764Z,11.33
2018-05-23T22:06:36.240Z,7.13
2018-05-23T22:09:03.771Z,8.70
2018-05-23T22:11:31.223Z,7.00
2018-05-23T22:13:58.704Z,5.07
2018-05-23T22:16:26.191Z,6.67
2018-05-23T22:18:53.673Z,12.50
2018-05-23T22:21:21.144Z,8.50
2018-05-23T22:23:49.380Z,5.93
2018-05-23T22:26:16.875Z,16.97
2018-05-23T22:28:45.117Z,8.00
2018-05-23T22:31:12.587Z,8.67
2018-05-23T22:33:40.081Z,10.43
2018-05-23T22:36:07.562Z,6.10
2018-05-23T22:38:35.032Z,6.73
2018-05-23T22:41:02.514Z,10.83
2018-05-23T22:43:29.996Z,9.33
2018-05-23T22:45:57.455Z,8.93
2018-05-23T22:48:25.705Z,6.83
2018-05-23T22:50:53.204Z,6.50
2018-05-23T22:53:21.467Z,4.93
2018-05-23T22:55:48.928Z,5.10
2018-05-23T22:58:17.158Z,6.50
2018-05-23T23:00:44.656Z,5.10
2018-05-23T23:03:12.199Z,5.60
2018-05-23T23:05:39.651Z,5.73
2018-05-23T23:08:07.124Z,14.33
2018-05-23T23:10:34.581Z,4.90
2018-05-23T23:13:02.068Z,7.93
2018-05-23T23:15:30.315Z,9.10
2018-05-23T23:17:57.764Z,8.23
2018-05-23T23:20:25.236Z,9.13
2018-05-23T23:22:52.688Z,5.80
2018-05-23T23:25:20.165Z,6.40
2018-05-23T23:27:47.640Z,7.10
2018-05-23T23:30:15.127Z,5.03
2018-05-23T23:32:42.583Z,6.70
2018-05-23T23:35:10.062Z,10.53
2018-05-23T23:37:37.513Z,5.47
2018-05-23T23:40:05.013Z,9.20
2018-05-23T23:42:33.236Z,8.07
2018-05-23T23:45:00.955Z,7.53
2018-05-23T23:47:28.187Z,6.73
2018-05-23T23:49:55.710Z,10.63
2018-05-23T23:52:23.179Z,6.77
2018-05-23T23:54:50.663Z,7.37
2018-05-23T23:57:18.124Z,5.20
2018-05-23T23:59:45.617Z,7.57
